Time;durP1;ratioP1;P1;durP2;ratioP2;P2;SDS_P1;SDS_P2;PMS_P1;PMS_P2;Temp;Humidity;BMP_temperature;BMP_pressure;BME280_temperature;BME280_humidity;BME280_pressure;Samples;Min_cycle;Max_cycle;Signal;HPM_P1;HPM_P2
2023/03/10 00:00:59;;;;;;;15.05;7.00;;;;;;;11.88;92.18;97484.72;5112703;28;20031;-47
2023/03/10 00:03:27;;;;;;;8.32;6.47;;;;;;;11.87;91.94;97486.56;5112046;28;20082;-47
2023/03/10 00:06:02;;;;;;;10.77;6.50;;;;;;;11.82;91.68;97485.69;5112540;28;20119;-46
2023/03/10 00:08:30;;;;;;;10.98;6.57;;;;;;;11.79;91.90;97477.22;5094256;28;20206;-47
2023/03/10 00:11:05;;;;;;;9.80;5.80;;;;;;;11.82;90.92;97475.16;5112288;28;20097;-46
2023/03/10 00:13:49;;;;;;;9.35;5.20;;;;;;;11.79;90.60;97469.34;5077531;28;20203;-46
2023/03/10 00:16:32;;;;;;;8.10;4.95;;;;;;;11.78;90.60;97465.09;5112400;28;20019;-47
2023/03/10 00:18:58;;;;;;;6.88;4.15;;;;;;;11.77;90.27;97467.97;5094129;28;20106;-47
2023/03/10 00:21:32;;;;;;;8.90;4.78;;;;;;;11.79;89.91;97477.22;5112535;28;20065;-47
2023/03/10 00:23:58;;;;;;;8.75;3.92;;;;;;;11.84;88.70;97466.00;5112392;28;20059;-46
2023/03/10 00:26:37;;;;;;;;;;;;;;;;;;;;;
2023/03/10 00:29:19;;;;;;;6.65;4.00;;;;;;;11.80;87.89;97462.25;5110270;28;20527;-46
2023/03/10 00:31:45;;;;;;;8.10;3.70;;;;;;;11.83;87.49;97448.66;5112033;28;20035;-46
2023/03/10 00:34:12;;;;;;;9.38;3.58;;;;;;;11.82;88.13;97454.91;5112420;28;20024;-46
2023/03/10 00:36:42;;;;;;;9.27;5.18;;;;;;;11.85;89.00;97461.53;5110679;28;20079;-46
2023/03/10 00:39:10;;;;;;;7.20;3.53;;;;;;;11.88;88.89;97467.09;5112214;28;20031;-46
2023/03/10 00:41:41;;;;;;;10.93;3.70;;;;;;;11.96;87.74;97468.59;5093813;28;20057;-46
2023/03/10 00:44:12;;;;;;;6.10;3.15;;;;;;;11.98;87.24;97469.13;5093859;28;20079;-47
2023/03/10 00:46:49;;;;;;;5.18;2.70;;;;;;;12.05;88.08;97463.72;5093794;28;20023;-47
2023/03/10 00:49:35;;;;;;;6.60;3.20;;;;;;;12.15;86.33;97462.06;5093831;28;20106;-47
2023/03/10 00:52:01;;;;;;;8.10;3.92;;;;;;;12.15;85.95;97463.88;5111887;28;20032;-46
2023/03/10 00:54:28;;;;;;;18.05;4.40;;;;;;;12.27;87.13;97455.88;5093729;28;20051;-46
2023/03/10 00:56:58;;;;;;;48.70;5.95;;;;;;;12.36;86.05;97467.59;5093592;28;20031;-46
2023/03/10 00:59:29;;;;;;;11.60;3.28;;;;;;;12.45;86.22;97460.88;5093728;28;20024;-46
2023/03/10 01:02:03;;;;;;;10.38;4.07;;;;;;;12.53;86.28;97468.34;5111934;28;20027;-46
2023/03/10 01:04:39;;;;;;;9.75;3.50;;;;;;;12.66;85.22;97458.53;5093648;28;20026;-47
2023/03/10 01:07:14;;;;;;;9.35;3.47;;;;;;;12.73;85.11;97453.88;5111927;28;20020;-47
2023/03/10 01:09:41;;;;;;;8.48;3.13;;;;;;;12.78;84.39;97448.69;5093549;28;20032;-46
2023/03/10 01:12:08;;;;;;;6.82;2.72;;;;;;;12.86;83.30;97445.63;5111753;28;20047;-46
2023/03/10 01:14:39;;;;;;;10.77;3.15;;;;;;;12.89;82.34;97434.56;5095123;28;20438;-46
2023/03/10 01:17:10;;;;;;;14.10;3.13;;;;;;;12.97;82.03;97438.63;5115823;28;20040;-46
2023/03/10 01:19:39;;;;;;;13.38;3.00;;;;;;;13.02;82.36;97430.78;5115814;28;20110;-47
2023/03/10 01:22:11;;;;;;;10.02;4.00;;;;;;;13.04;80.47;97419.97;5115685;28;20046;-46
2023/03/10 01:24:37;;;;;;;11.50;4.85;;;;;;;13.07;81.21;97419.50;5115602;28;20024;-46
2023/03/10 01:27:15;;;;;;;24.17;10.00;;;;;;;13.07;80.09;97395.81;5115578;28;20022;-48
2023/03/10 01:29:42;;;;;;;12.55;7.32;;;;;;;13.00;80.47;97409.16;5115562;28;20020;-46
2023/03/10 01:32:10;;;;;;;37.60;6.72;;;;;;;12.86;79.79;97398.22;5115806;28;20016;-46
2023/03/10 01:34:37;;;;;;;64.63;8.32;;;;;;;12.74;79.97;97390.44;5115497;28;20104;-46
2023/03/10 01:37:04;;;;;;;18.60;4.00;;;;;;;12.64;78.33;97379.81;5093454;28;20047;-46
2023/03/10 01:39:38;;;;;;;23.02;4.05;;;;;;;12.58;79.51;97362.38;5095019;28;20465;-47
2023/03/10 01:42:19;;;;;;;17.15;4.05;;;;;;;12.56;81.32;97362.59;5093626;28;20050;-47
2023/03/10 01:45:26;;;;;;;11.55;2.95;;;;;;;12.58;80.61;97359.72;5093685;28;20016;-47
2023/03/10 01:48:10;;;;;;;8.23;2.20;;;;;;;12.56;79.57;97343.41;5094945;28;20024;-47
2023/03/10 01:50:56;;;;;;;7.93;2.95;;;;;;;12.55;79.54;97339.94;5093425;28;20028;-47
2023/03/10 01:53:29;;;;;;;7.35;2.50;;;;;;;12.63;78.36;97330.81;5093308;28;20028;-46
2023/03/10 01:56:16;;;;;;;10.77;2.53;;;;;;;12.81;78.08;97331.53;5094773;28;20016;-47
2023/03/10 01:59:25;;;;;;;6.25;2.30;;;;;;;12.99;77.79;97318.81;5093423;28;20030;-47
2023/03/10 02:02:01;;;;;;;5.68;2.22;;;;;;;13.11;75.16;97305.50;5094481;28;20115;-47
2023/03/10 02:04:47;;;;;;;5.63;2.00;;;;;;;13.24;74.57;97293.75;5076563;28;20118;-47
2023/03/10 02:07:48;;;;;;;4.63;2.08;;;;;;;13.30;73.73;97292.78;5093124;28;20100;-47
2023/03/10 02:10:33;;;;;;;11.00;2.10;;;;;;;13.38;72.93;97281.78;5094398;28;20051;-47
2023/03/10 02:13:00;;;;;;;6.38;1.63;;;;;;;13.40;71.29;97268.34;5093100;28;20030;-47
2023/03/10 02:15:28;;;;;;;4.70;1.98;;;;;;;13.42;70.42;97242.53;5094319;28;20024;-46
2023/03/10 02:17:59;;;;;;;5.95;1.90;;;;;;;13.36;70.16;97239.06;5094264;28;20115;-47
2023/03/10 02:20:58;;;;;;;5.15;1.85;;;;;;;13.35;70.51;97237.47;5092918;28;20066;-46
2023/03/10 02:24:00;;;;;;;3.45;1.77;;;;;;;13.51;70.00;97229.66;5079151;28;20028;-47
2023/03/10 02:27:14;;;;;;;2.60;1.23;;;;;;;13.69;67.61;97242.41;5093527;28;20020;-46
2023/03/10 02:30:18;;;;;;;7.38;1.52;;;;;;;13.62;67.16;97212.06;5093151;28;20119;-47
2023/03/10 02:32:57;;;;;;;4.20;1.90;;;;;;;13.62;65.21;97204.16;5092676;28;20444;-47
2023/03/10 02:36:24;;;;;;;3.65;1.33;;;;;;;13.56;65.06;97205.97;5093589;28;20040;-47
2023/03/10 02:39:07;;;;;;;6.32;1.63;;;;;;;13.56;65.41;97203.31;5114170;28;20027;-47
2023/03/10 02:41:46;;;;;;;3.13;1.10;;;;;;;13.57;64.17;97189.09;5095837;28;20128;-47
2023/03/10 02:44:25;;;;;;;5.55;1.10;;;;;;;13.54;64.09;97181.69;5114196;28;20106;-47
2023/03/10 02:46:55;;;;;;;3.97;1.10;;;;;;;13.52;63.63;97189.88;5113910;28;20016;-47
2023/03/10 02:49:41;;;;;;;11.93;2.28;;;;;;;13.57;63.76;97168.81;5114080;28;20019;-47
2023/03/10 02:52:49;;;;;;;5.18;1.08;;;;;;;13.72;62.50;97178.66;5095519;28;20024;-47
2023/03/10 02:55:35;;;;;;;1.50;0.95;;;;;;;13.82;61.40;97172.59;5113926;28;20572;-47
2023/03/10 02:58:16;;;;;;;4.82;1.38;;;;;;;13.88;61.33;97161.00;5113798;28;20028;-47
2023/03/10 03:00:54;;;;;;;6.50;1.23;;;;;;;13.96;60.26;97151.81;5113826;28;20024;-47
2023/03/10 03:03:35;;;;;;;3.50;1.20;;;;;;;14.02;59.31;97136.78;5095441;28;20401;-48
2023/03/10 03:06:10;;;;;;;3.97;1.50;;;;;;;14.06;59.25;97133.38;5113700;28;20062;-47
2023/03/10 03:08:45;;;;;;;3.83;1.20;;;;;;;14.08;59.44;97138.38;5095412;28;20027;-47
2023/03/10 03:11:17;;;;;;;;;;;;;;;14.11;60.43;97133.38;5078770;28;20442;-47
2023/03/10 03:13:55;;;;;;;3.25;0.80;;;;;;;14.21;56.42;97110.72;5095307;28;20006;-47
2023/03/10 03:16:29;;;;;;;5.03;1.50;;;;;;;14.25;57.01;97101.22;5113552;28;20381;-47
2023/03/10 03:18:55;;;;;;;4.93;1.35;;;;;;;14.24;56.77;97120.75;5113497;28;20020;-47
2023/03/10 03:21:31;;;;;;;3.50;1.08;;;;;;;14.24;56.43;97132.06;5078210;28;20019;-47
2023/03/10 03:24:17;;;;;;;;;;;;;;;14.22;57.77;97126.28;5078662;28;20031;-47
2023/03/10 03:26:53;;;;;;;2.42;1.17;;;;;;;14.25;57.06;97111.78;5113245;28;19919;-48
2023/03/10 03:29:34;;;;;;;3.05;1.10;;;;;;;14.34;57.32;97107.53;5113232;28;20489;-47
2023/03/10 03:32:16;;;;;;;3.10;0.80;;;;;;;14.44;54.79;97104.13;5113156;28;20028;-48
2023/03/10 03:35:01;;;;;;;3.10;0.90;;;;;;;14.41;54.96;97094.91;5095478;28;20055;-48
2023/03/10 03:37:42;;;;;;;1.80;0.80;;;;;;;14.36;55.33;97081.69;5093381;28;20416;-47
2023/03/10 03:40:28;;;;;;;3.67;1.02;;;;;;;14.31;55.22;97089.63;5094779;28;20564;-47
2023/03/10 03:43:11;;;;;;;1.85;0.70;;;;;;;14.30;54.17;97098.56;5094706;28;20500;-48
2023/03/10 03:45:43;;;;;;;3.95;1.50;;;;;;;14.21;55.26;97106.22;5112920;28;20051;-47
2023/03/10 03:48:27;;;;;;;1.88;0.93;;;;;;;14.23;54.93;97098.06;5112957;28;20059;-47
2023/03/10 03:51:17;;;;;;;3.33;1.10;;;;;;;14.22;54.73;97097.25;5094435;28;20026;-48
2023/03/10 03:53:59;;;;;;;3.33;0.60;;;;;;;14.22;53.90;97107.00;5094375;28;20602;-47
2023/03/10 03:56:30;;;;;;;4.35;1.60;;;;;;;14.10;54.09;97083.50;5112760;28;20049;-47
2023/03/10 03:59:16;;;;;;;2.78;1.05;;;;;;;14.11;55.11;97101.72;5112994;28;20072;-47
2023/03/10 04:01:51;;;;;;;5.07;1.90;;;;;;;14.16;54.97;97088.53;5094297;28;20032;-48
2023/03/10 04:04:33;;;;;;;;;;;;;;;14.19;55.52;97069.53;5113080;28;20497;-47
2023/03/10 04:07:01;;;;;;;3.08;1.10;;;;;;;14.17;54.95;97078.78;5112624;28;19943;-47
2023/03/10 04:09:40;;;;;;;5.55;1.30;;;;;;;14.12;55.38;97084.84;5112571;28;20023;-48
2023/03/10 04:12:12;;;;;;;5.00;2.15;;;;;;;14.10;55.50;97078.25;5094175;28;20031;-46
2023/03/10 04:14:46;;;;;;;3.97;1.10;;;;;;;14.06;55.53;97066.63;5112522;28;20019;-47
2023/03/10 04:17:24;;;;;;;1.90;1.00;;;;;;;14.02;56.30;97091.94;5112383;28;20027;-48
2023/03/10 04:20:08;;;;;;;7.07;1.65;;;;;;;13.94;56.48;97051.06;5094171;28;20156;-47
2023/03/10 04:22:42;;;;;;;5.75;1.55;;;;;;;13.76;57.57;97053.16;5093966;28;20038;-47
2023/03/10 04:25:30;;;;;;;3.45;1.45;;;;;;;13.72;58.10;97046.00;5094096;28;20039;-47
2023/03/10 04:28:05;;;;;;;4.43;1.23;;;;;;;13.63;58.25;97053.63;5112264;28;20035;-48
2023/03/10 04:30:40;;;;;;;;;;;;;;;13.57;58.71;97044.13;5112612;28;20016;-46
2023/03/10 04:33:16;;;;;;;2.30;0.88;;;;;;;13.38;59.46;97057.78;5094028;28;19911;-47
2023/03/10 04:35:52;;;;;;;3.78;1.30;;;;;;;13.25;61.52;97042.41;5112514;28;20508;-46
2023/03/10 04:38:27;;;;;;;7.13;2.17;;;;;;;13.05;65.49;97060.78;5109482;28;20059;-46
2023/03/10 04:41:12;;;;;;;4.80;1.83;;;;;;;12.38;69.24;97049.84;5112185;28;20540;-45
2023/03/10 04:43:47;;;;;;;5.45;2.28;;;;;;;11.95;72.29;97004.25;5093851;28;20024;-45
2023/03/10 04:46:20;;;;;;;5.32;2.15;;;;;;;11.69;74.46;97046.06;5112149;28;20030;-45
2023/03/10 04:48:54;;;;;;;4.47;1.42;;;;;;;11.69;74.75;97061.03;5114051;28;20028;-45
2023/03/10 04:51:24;;;;;;;3.47;1.55;;;;;;;11.83;72.69;97046.47;5116182;28;20027;-46
2023/03/10 04:53:56;;;;;;;3.10;1.50;;;;;;;11.89;74.50;97026.28;5116256;28;20019;-46
2023/03/10 04:56:39;;;;;;;3.90;1.70;;;;;;;12.02;74.30;97040.88;5116063;28;20397;-47
2023/03/10 04:59:16;;;;;;;7.38;1.95;;;;;;;12.16;71.13;97037.56;5116167;28;20077;-47
2023/03/10 05:01:56;;;;;;;11.43;2.17;;;;;;;12.27;69.45;97064.75;5116250;28;20173;-47
2023/03/10 05:04:23;;;;;;;4.30;1.42;;;;;;;12.33;68.96;97016.38;5116109;28;20016;-47
2023/03/10 05:06:51;;;;;;;3.85;1.30;;;;;;;12.41;68.44;97056.44;5097730;28;20023;-47
2023/03/10 05:09:18;;;;;;;4.53;1.65;;;;;;;12.42;69.47;97053.56;5097812;28;20016;-47
2023/03/10 05:11:49;;;;;;;7.47;1.98;;;;;;;12.45;70.19;97060.94;5115991;28;20027;-47
2023/03/10 05:14:31;;;;;;;8.40;2.20;;;;;;;12.49;70.91;97043.59;5097512;28;20216;-47
2023/03/10 05:17:10;;;;;;;3.65;1.55;;;;;;;12.54;69.29;97074.44;5115730;28;20020;-47
2023/03/10 05:19:42;;;;;;;2.78;1.40;;;;;;;12.52;69.72;97079.16;5097434;28;20015;-46
2023/03/10 05:22:17;;;;;;;7.97;1.70;;;;;;;12.51;71.72;97091.50;5115699;28;20028;-47
2023/03/10 05:24:48;;;;;;;6.88;1.55;;;;;;;12.55;70.60;97083.91;5115741;28;20534;-45
2023/03/10 05:27:34;;;;;;;5.97;1.83;;;;;;;12.52;73.12;97087.84;5115635;28;20034;-46
2023/03/10 05:30:10;;;;;;;6.10;2.78;;;;;;;12.49;73.85;97090.94;5097135;28;20501;-45
2023/03/10 05:32:37;;;;;;;9.82;2.78;;;;;;;12.31;74.70;97097.38;5115528;28;20035;-46
2023/03/10 05:35:11;;;;;;;5.70;1.60;;;;;;;12.01;75.14;97094.50;5115765;28;20020;-45
2023/03/10 05:37:44;;;;;;;6.50;1.85;;;;;;;11.51;77.31;97151.47;5093053;28;20044;-45
2023/03/10 05:40:37;;;;;;;7.65;1.42;;;;;;;11.08;81.15;97174.81;5093705;28;20044;-46
2023/03/10 05:43:05;;;;;;;7.07;3.45;;;;;;;10.89;85.32;97184.78;5095049;28;20079;-45
2023/03/10 05:45:39;;;;;;;6.50;1.95;;;;;;;10.79;88.74;97213.47;5094937;28;20069;-46
2023/03/10 05:48:10;;;;;;;8.38;3.17;;;;;;;11.05;92.14;97211.25;5094947;28;20020;-45
2023/03/10 05:50:38;;;;;;;9.38;3.08;;;;;;;11.18;93.80;97213.53;5093424;28;20028;-45
2023/03/10 05:53:05;;;;;;;9.93;1.88;;;;;;;11.42;95.19;97214.16;5094774;28;20032;-45
2023/03/10 05:55:33;;;;;;;11.00;3.08;;;;;;;11.47;95.58;97240.50;5095024;28;20137;-46
2023/03/10 05:58:00;;;;;;;6.90;1.85;;;;;;;11.34;95.52;97232.94;5093311;28;20028;-45
2023/03/10 06:00:26;;;;;;;13.40;2.10;;;;;;;11.19;95.74;97233.53;5092361;28;20115;-45
2023/03/10 06:03:06;;;;;;;9.05;2.13;;;;;;;10.98;95.73;97221.91;5094561;28;20035;-45
2023/03/10 06:05:34;;;;;;;11.07;2.42;;;;;;;10.76;95.80;97216.56;5093474;28;20081;-45
2023/03/10 06:08:00;;;;;;;8.85;2.20;;;;;;;10.61;96.35;97214.50;5093199;28;20489;-45
2023/03/10 06:10:27;;;;;;;7.90;2.70;;;;;;;10.46;96.39;97225.50;5094303;28;20050;-44
2023/03/10 06:12:54;;;;;;;10.18;2.30;;;;;;;10.30;96.12;97231.50;5094434;28;20505;-45
2023/03/10 06:15:21;;;;;;;11.77;2.50;;;;;;;10.17;96.61;97233.34;5094276;28;20047;-45
2023/03/10 06:17:47;;;;;;;6.53;2.05;;;;;;;10.08;96.57;97237.38;5094393;28;20482;-45
2023/03/10 06:20:15;;;;;;;11.73;2.60;;;;;;;10.01;96.79;97244.56;5094218;28;20038;-45
2023/03/10 06:22:42;;;;;;;7.32;2.38;;;;;;;10.08;97.75;97240.00;5093224;28;20028;-45
2023/03/10 06:25:09;;;;;;;9.88;3.03;;;;;;;10.17;98.00;97254.31;5094159;28;20516;-45
2023/03/10 06:27:36;;;;;;;11.85;2.15;;;;;;;10.35;98.46;97266.50;5094239;28;20537;-45
2023/03/10 06:30:03;;;;;;;6.05;1.50;;;;;;;10.46;97.30;97262.22;5092776;28;20486;-46
2023/03/10 06:32:30;;;;;;;3.17;1.25;;;;;;;10.50;95.60;97260.75;5094057;28;20043;-46
2023/03/10 06:34:58;;;;;;;5.53;1.38;;;;;;;10.63;94.71;97278.03;5094364;28;20047;-46
2023/03/10 06:37:25;;;;;;;7.40;1.50;;;;;;;10.81;93.86;97273.59;5097669;28;20471;-46
2023/03/10 06:39:52;;;;;;;8.20;1.77;;;;;;;10.99;93.63;97284.69;5114284;28;20030;-46
2023/03/10 06:42:19;;;;;;;8.80;1.40;;;;;;;11.15;93.28;97283.09;5114268;28;20065;-46
2023/03/10 06:44:45;;;;;;;8.32;2.03;;;;;;;11.22;92.23;97292.66;5114422;28;20031;-47
2023/03/10 06:47:12;;;;;;;4.72;1.75;;;;;;;11.26;90.75;97285.88;5114030;28;20019;-47
2023/03/10 06:49:39;;;;;;;6.70;1.35;;;;;;;11.36;90.04;97289.44;5113945;28;20027;-47
2023/03/10 06:52:07;;;;;;;6.20;2.08;;;;;;;11.52;88.82;97300.19;5113902;28;20047;-47
2023/03/10 06:54:36;;;;;;;6.13;1.70;;;;;;;11.60;87.89;97297.94;5114201;28;20439;-47
2023/03/10 06:57:04;;;;;;;8.25;2.00;;;;;;;11.72;86.77;97292.59;5113940;28;20023;-47
2023/03/10 06:59:31;;;;;;;6.68;1.67;;;;;;;11.79;85.79;97297.69;5113813;28;20099;-47
2023/03/10 07:01:58;;;;;;;7.28;1.83;;;;;;;11.89;85.81;97302.31;5113712;28;20447;-47
2023/03/10 07:04:25;;;;;;;6.68;1.58;;;;;;;11.96;84.94;97300.31;5113826;28;20035;-47
2023/03/10 07:06:52;;;;;;;10.60;2.20;;;;;;;12.11;82.33;97310.22;5113984;28;20032;-46
2023/03/10 07:09:20;;;;;;;9.25;1.48;;;;;;;12.29;79.95;97325.69;5113677;28;20023;-46
2023/03/10 07:11:47;;;;;;;7.78;1.75;;;;;;;12.46;81.27;97343.28;5113484;28;20031;-46
2023/03/10 07:14:15;;;;;;;7.78;1.80;;;;;;;12.49;83.77;97361.97;5113623;28;20409;-46
2023/03/10 07:16:42;;;;;;;8.85;2.35;;;;;;;12.46;83.52;97373.00;5113500;28;20023;-46
2023/03/10 07:19:09;;;;;;;8.57;1.80;;;;;;;12.45;83.91;97374.03;5113491;28;20038;-46
2023/03/10 07:21:35;;;;;;;7.22;2.10;;;;;;;12.46;81.89;97364.34;5113419;28;20030;-46
2023/03/10 07:24:02;;;;;;;6.68;1.85;;;;;;;12.46;81.29;97359.84;5113327;28;20108;-46
2023/03/10 07:26:30;;;;;;;7.57;1.90;;;;;;;12.51;79.31;97373.06;5113413;28;20085;-47
2023/03/10 07:28:57;;;;;;;6.28;2.10;;;;;;;12.64;79.92;97357.97;5113317;28;20102;-47
2023/03/10 07:31:26;;;;;;;10.55;2.03;;;;;;;12.77;78.19;97365.47;5113109;28;20475;-46
2023/03/10 07:33:53;;;;;;;5.43;1.75;;;;;;;12.82;76.52;97373.44;5113275;28;20464;-46
2023/03/10 07:36:21;;;;;;;11.32;2.17;;;;;;;12.81;76.77;97374.47;5094821;28;20028;-46
2023/03/10 07:38:48;;;;;;;12.68;1.98;;;;;;;12.84;75.33;97375.78;5112776;28;20501;-47
2023/03/10 07:41:18;;;;;;;10.55;1.92;;;;;;;12.90;75.28;97378.25;5113097;28;20063;-46
2023/03/10 07:43:44;;;;;;;15.63;1.80;;;;;;;13.08;72.73;97385.03;5113110;28;20050;-46
2023/03/10 07:46:13;;;;;;;19.30;2.42;;;;;;;13.21;69.75;97390.94;5094852;28;20030;-46
2023/03/10 07:48:41;;;;;;;11.18;1.67;;;;;;;13.35;66.75;97392.94;5112942;28;20065;-46
2023/03/10 07:51:08;;;;;;;14.75;1.88;;;;;;;13.37;68.28;97404.03;5112725;28;20024;-46
2023/03/10 07:53:35;;;;;;;13.43;1.88;;;;;;;13.40;67.62;97402.75;5094464;28;20036;-46
2023/03/10 07:56:07;;;;;;;9.00;1.70;;;;;;;13.48;66.41;97409.38;5112673;28;20028;-46
2023/03/10 07:58:34;;;;;;;11.23;1.80;;;;;;;13.59;68.34;97417.13;5112773;28;20030;-46
2023/03/10 08:01:01;;;;;;;10.60;2.30;;;;;;;13.68;66.33;97424.56;5112731;28;20039;-46
2023/03/10 08:03:28;;;;;;;7.85;2.25;;;;;;;13.76;66.00;97430.19;5112606;28;20405;-46
2023/03/10 08:06:01;;;;;;;7.72;2.38;;;;;;;13.78;61.99;97430.75;5112611;28;20030;-47
2023/03/10 08:08:28;;;;;;;8.82;2.08;;;;;;;13.83;65.39;97421.28;5112492;28;20024;-46
2023/03/10 08:11:09;;;;;;;7.53;3.10;;;;;;;13.76;66.15;97429.38;5075276;28;20036;-47
2023/03/10 08:13:52;;;;;;;6.95;2.17;;;;;;;13.76;65.96;97448.66;5112441;28;20026;-46
2023/03/10 08:16:40;;;;;;;6.43;2.67;;;;;;;13.80;64.71;97438.38;5094076;28;20423;-46
2023/03/10 08:19:23;;;;;;;6.38;2.30;;;;;;;13.79;62.55;97431.53;5112345;28;20028;-46
2023/03/10 08:21:53;;;;;;;8.23;2.70;;;;;;;13.88;63.03;97426.59;5094076;28;20030;-46
2023/03/10 08:24:20;;;;;;;9.85;2.72;;;;;;;14.00;63.78;97427.19;5111939;28;20024;-46
2023/03/10 08:26:48;;;;;;;9.32;2.60;;;;;;;14.16;61.98;97428.88;5094130;28;20020;-46
2023/03/10 08:29:15;;;;;;;10.32;2.60;;;;;;;14.32;63.65;97428.97;5112237;28;20027;-46
2023/03/10 08:31:42;;;;;;;8.80;2.83;;;;;;;14.34;63.26;97427.66;5093925;28;20024;-46
2023/03/10 08:34:09;;;;;;;10.98;3.20;;;;;;;14.29;63.95;97442.72;5112280;28;20023;-46
2023/03/10 08:36:38;;;;;;;8.63;2.17;;;;;;;14.22;63.26;97447.41;5112184;28;20027;-46
2023/03/10 08:39:06;;;;;;;7.97;2.60;;;;;;;14.13;63.77;97462.91;5111883;28;20044;-46
2023/03/10 08:41:41;;;;;;;12.93;3.47;;;;;;;14.10;65.10;97466.84;5112148;28;20020;-46
2023/03/10 08:44:10;;;;;;;8.32;2.35;;;;;;;14.12;65.81;97477.94;5112111;28;20483;-46
2023/03/10 08:46:47;;;;;;;16.05;2.95;;;;;;;14.17;65.14;97472.69;5112098;28;20075;-46
2023/03/10 08:49:25;;;;;;;9.75;1.42;;;;;;;14.26;63.76;97480.16;5112159;28;20094;-47
2023/03/10 08:51:53;;;;;;;9.40;1.55;;;;;;;14.34;62.99;97484.94;5093715;28;20081;-46
2023/03/10 08:54:21;;;;;;;5.10;1.42;;;;;;;14.24;57.36;97483.03;5112037;28;20552;-46
2023/03/10 08:56:49;;;;;;;3.95;1.40;;;;;;;13.67;58.01;97508.16;5112031;28;20024;-46
2023/03/10 08:59:15;;;;;;;5.10;1.55;;;;;;;13.32;59.79;97498.84;5111956;28;20389;-46
2023/03/10 09:01:46;;;;;;;9.30;1.42;;;;;;;13.08;63.33;97515.91;5111931;28;20619;-46
2023/03/10 09:04:13;;;;;;;6.53;1.23;;;;;;;13.11;66.05;97529.38;5111951;28;20564;-46
2023/03/10 09:06:40;;;;;;;5.20;0.93;;;;;;;13.12;65.08;97528.34;5111832;28;20023;-45
2023/03/10 09:09:09;;;;;;;2.45;0.90;;;;;;;12.88;66.92;97553.34;5111969;28;20565;-45
2023/03/10 09:11:39;;;;;;;9.65;1.45;;;;;;;12.84;68.70;97553.03;5111728;28;20016;-45
2023/03/10 09:14:08;;;;;;;6.63;1.50;;;;;;;13.08;70.08;97560.69;5111881;28;20020;-45
2023/03/10 09:16:36;;;;;;;6.78;1.30;;;;;;;13.43;70.22;97564.84;5093558;28;20027;-46
2023/03/10 09:19:04;;;;;;;4.80;1.08;;;;;;;13.68;69.35;97572.22;5111911;28;20015;-46
2023/03/10 09:21:31;;;;;;;7.07;1.83;;;;;;;13.79;68.88;97558.09;5093554;28;20023;-46
2023/03/10 09:23:58;;;;;;;11.63;2.15;;;;;;;13.83;68.46;97545.22;5111790;28;20015;-46
2023/03/10 09:26:25;;;;;;;8.02;1.58;;;;;;;13.88;67.58;97555.81;5093760;28;20047;-46
2023/03/10 09:28:53;;;;;;;16.48;2.13;;;;;;;14.05;66.94;97567.06;5111808;28;20073;-46
2023/03/10 09:31:42;;;;;;;23.77;3.17;;;;;;;14.40;66.42;97568.41;5111528;28;20092;-47
2023/03/10 09:34:10;;;;;;;10.15;1.77;;;;;;;14.92;64.46;97574.84;5111014;28;20028;-47
2023/03/10 09:36:38;;;;;;;10.13;1.70;;;;;;;15.26;61.64;97570.00;5114610;28;20024;-46
2023/03/10 09:39:11;;;;;;;10.52;2.00;;;;;;;15.49;60.95;97582.00;5115179;28;20055;-47
2023/03/10 09:41:51;;;;;;;11.35;1.60;;;;;;;15.67;61.02;97593.16;5115459;28;20054;-47
2023/03/10 09:44:46;;;;;;;6.32;1.90;;;;;;;15.73;58.60;97585.00;5097097;28;20059;-47
2023/03/10 09:47:30;;;;;;;6.30;1.70;;;;;;;15.79;58.35;97585.81;5115432;28;20031;-47
2023/03/10 09:50:45;;;;;;;9.13;1.85;;;;;;;16.04;57.58;97595.66;5115253;28;20757;-47
2023/03/10 09:53:41;;;;;;;4.22;1.35;;;;;;;16.23;55.18;97595.94;5115425;28;20035;-47
2023/03/10 09:56:12;;;;;;;8.13;1.40;;;;;;;16.27;54.92;97606.78;5115189;28;20051;-47
2023/03/10 09:58:57;;;;;;;5.88;1.30;;;;;;;16.47;53.57;97617.41;5097080;28;20019;-47
2023/03/10 10:01:28;;;;;;;4.07;1.60;;;;;;;16.63;53.90;97617.41;5115144;28;20058;-47
2023/03/10 10:04:26;;;;;;;8.27;1.63;;;;;;;16.84;52.37;97621.66;5115068;28;20042;-46
2023/03/10 10:06:56;;;;;;;11.93;2.35;;;;;;;17.19;49.90;97627.94;5096110;28;20053;-47
2023/03/10 10:09:32;;;;;;;7.80;1.50;;;;;;;17.51;48.76;97618.84;5114849;28;20020;-45
2023/03/10 10:12:13;;;;;;;8.65;1.13;;;;;;;17.81;45.61;97617.09;5096494;28;20034;-44
2023/03/10 10:14:42;;;;;;;8.90;0.98;;;;;;;18.09;43.78;97619.09;5115058;28;20031;-45
2023/03/10 10:17:50;;;;;;;10.30;1.75;;;;;;;18.39;43.78;97616.50;5114768;28;20019;-44
2023/03/10 10:20:37;;;;;;;6.25;1.30;;;;;;;18.40;42.24;97616.22;5114720;28;20031;-44
2023/03/10 10:23:24;;;;;;;6.57;1.60;;;;;;;18.51;42.43;97631.03;5114597;28;20029;-44
2023/03/10 10:25:55;;;;;;;7.75;1.52;;;;;;;18.65;41.63;97648.97;5096183;28;20031;-45
2023/03/10 10:29:05;;;;;;;7.47;1.70;;;;;;;18.87;42.04;97646.69;5114591;28;20058;-44
2023/03/10 10:31:33;;;;;;;7.32;1.30;;;;;;;19.06;40.77;97651.31;5114453;28;20392;-44
2023/03/10 10:34:07;;;;;;;10.00;1.67;;;;;;;19.35;38.88;97644.09;5114391;28;20055;-44
2023/03/10 10:36:49;;;;;;;6.25;1.60;;;;;;;21.61;37.90;97638.03;5096291;28;20116;-45
2023/03/10 10:39:30;;;;;;;8.02;1.35;;;;;;;24.28;33.19;97634.75;5114056;28;20123;-45
2023/03/10 10:42:41;;;;;;;6.95;1.70;;;;;;;24.58;31.41;97642.19;5114202;28;20030;-44
2023/03/10 10:45:32;;;;;;;8.15;1.30;;;;;;;23.68;31.60;97640.81;5114060;28;20081;-45
2023/03/10 10:48:01;;;;;;;6.35;1.40;;;;;;;22.91;31.76;97649.00;5095693;28;20031;-45
2023/03/10 10:50:33;;;;;;;5.20;1.65;;;;;;;22.30;32.41;97648.59;5095715;28;20118;-45
2023/03/10 10:53:23;;;;;;;3.92;1.23;;;;;;;21.56;33.87;97662.16;5114291;28;20405;-45
2023/03/10 10:56:14;;;;;;;5.70;1.73;;;;;;;20.88;34.61;97664.41;5113937;28;20060;-45
2023/03/10 10:58:42;;;;;;;5.50;1.65;;;;;;;20.62;35.69;97672.03;5113915;28;20028;-45
2023/03/10 11:01:16;;;;;;;11.63;1.95;;;;;;;20.25;36.25;97675.50;5113855;28;20062;-45
2023/03/10 11:03:47;;;;;;;14.52;2.17;;;;;;;20.03;36.05;97665.41;5095536;28;20578;-45
2023/03/10 11:06:28;;;;;;;11.60;2.10;;;;;;;19.66;36.22;97673.03;5113732;28;20481;-45
2023/03/10 11:09:05;;;;;;;8.38;1.30;;;;;;;19.49;36.33;97680.66;5113763;28;20114;-45
2023/03/10 11:11:42;;;;;;;8.55;2.22;;;;;;;19.15;37.54;97703.59;5113607;28;20140;-45
2023/03/10 11:14:35;;;;;;;9.15;1.60;;;;;;;18.74;37.47;97703.13;5113665;28;20045;-45
2023/03/10 11:17:07;;;;;;;4.85;1.58;;;;;;;18.51;37.98;97721.38;5095388;28;20460;-44
2023/03/10 11:20:03;;;;;;;8.60;1.48;;;;;;;18.43;37.97;97726.44;5095274;28;20031;-45
2023/03/10 11:22:55;;;;;;;7.28;1.83;;;;;;;18.24;35.44;97731.63;5113465;28;20028;-45
2023/03/10 11:25:51;;;;;;;10.73;2.35;;;;;;;18.11;35.15;97725.03;5113510;28;20503;-45
2023/03/10 11:28:24;;;;;;;10.70;2.72;;;;;;;18.33;33.88;97728.13;5113383;28;20026;-45
2023/03/10 11:31:48;;;;;;;11.43;2.55;;;;;;;18.51;33.47;97739.97;5113341;28;20032;-45
2023/03/10 11:34:36;;;;;;;9.40;2.38;;;;;;;18.92;33.17;97753.00;5113368;28;20028;-45
2023/03/10 11:37:33;;;;;;;9.77;2.60;;;;;;;19.58;31.76;97750.84;5113185;28;20024;-45
2023/03/10 11:40:40;;;;;;;19.23;3.13;;;;;;;20.47;31.35;97757.53;5072424;28;20044;-45
2023/03/10 11:43:23;;;;;;;15.98;3.03;;;;;;;21.33;30.11;97758.13;5074112;28;20035;-44
2023/03/10 11:45:53;;;;;;;10.07;3.35;;;;;;;21.79;29.37;97750.38;5072502;28;20486;-45
2023/03/10 11:48:33;;;;;;;10.77;2.40;;;;;;;22.26;28.12;97757.22;5071087;28;20024;-45
2023/03/10 11:51:03;;;;;;;10.77;2.88;;;;;;;22.47;27.36;97768.25;5072282;28;20050;-45
2023/03/10 11:53:42;;;;;;;8.63;2.88;;;;;;;22.73;27.51;97759.66;5072217;28;20506;-45
2023/03/10 11:56:13;;;;;;;9.30;2.58;;;;;;;23.04;25.44;97762.47;5072306;28;20040;-45
2023/03/10 11:59:06;;;;;;;10.82;3.00;;;;;;;23.22;25.45;97752.66;5071467;28;20029;-45
2023/03/10 12:02:16;;;;;;;12.32;2.90;;;;;;;23.84;25.52;97751.06;5087657;28;20035;-45
2023/03/10 12:05:09;;;;;;;18.45;3.50;;;;;;;25.01;23.51;97733.41;5072132;28;20398;-45
2023/03/10 12:07:45;;;;;;;12.48;3.08;;;;;;;25.66;22.36;97734.16;5070758;28;20047;-46
2023/03/10 12:10:11;;;;;;;10.48;2.83;;;;;;;26.73;21.89;97738.63;5071910;28;20028;-46
2023/03/10 12:12:44;;;;;;;9.57;2.85;;;;;;;27.93;21.04;97735.00;5072034;28;20033;-46
2023/03/10 12:15:21;;;;;;;7.72;2.53;;;;;;;28.57;19.65;97733.41;5072007;28;20445;-46